createdAt,value
2023-08-08T00:01:27.682Z,2.83
2023-08-08T00:03:01.087Z,1.88
2023-08-08T00:04:33.514Z,5.15
2023-08-08T00:06:06.826Z,2.10
2023-08-08T00:07:40.509Z,2.28
2023-08-08T00:09:14.722Z,4.47
2023-08-08T00:10:47.127Z,2.88
2023-08-08T00:12:20.450Z,3.25
2023-08-08T00:13:52.969Z,2.00
2023-08-08T00:15:26.544Z,2.97
2023-08-08T00:16:58.968Z,3.97
2023-08-08T00:18:32.825Z,3.00
2023-08-08T00:20:08.215Z,1.50
2023-08-08T00:21:41.530Z,1.83
2023-08-08T00:23:15.306Z,3.55
2023-08-08T00:24:48.617Z,2.83
2023-08-08T00:26:20.967Z,2.90
2023-08-08T00:27:54.245Z,2.65
2023-08-08T00:29:26.624Z,4.93
2023-08-08T00:30:59.910Z,3.38
2023-08-08T00:32:32.370Z,2.00
2023-08-08T00:34:05.742Z,2.60
2023-08-08T00:35:38.079Z,2.33
2023-08-08T00:37:11.450Z,3.22
2023-08-08T00:38:45.184Z,2.25
2023-08-08T00:40:18.653Z,2.25
2023-08-08T00:41:51.063Z,2.63
2023-08-08T00:43:24.306Z,3.75
2023-08-08T00:45:02.806Z,2.20
2023-08-08T00:46:37.311Z,3.08
2023-08-08T00:48:10.178Z,3.33
2023-08-08T00:49:45.154Z,2.45
2023-08-08T00:51:19.208Z,1.63
2023-08-08T00:52:51.936Z,2.40
2023-08-08T00:54:27.092Z,2.40
2023-08-08T00:56:00.585Z,1.27
2023-08-08T00:57:35.773Z,3.08
2023-08-08T00:59:13.050Z,3.40
2023-08-08T01:00:46.731Z,1.45
2023-08-08T01:02:19.131Z,2.05
2023-08-08T01:03:53.331Z,4.85
2023-08-08T01:05:33.314Z,4.72
2023-08-08T01:07:18.435Z,1.60
2023-08-08T01:09:00.552Z,1.67
2023-08-08T01:10:39.670Z,2.55
2023-08-08T01:12:15.510Z,2.60
2023-08-08T01:13:49.610Z,1.30
2023-08-08T01:15:24.623Z,1.58
2023-08-08T01:16:59.828Z,1.52
2023-08-08T01:18:34.564Z,2.90
2023-08-08T01:20:11.180Z,1.80
2023-08-08T01:21:49.816Z,2.75
2023-08-08T01:23:35.317Z,2.10
2023-08-08T01:25:11.438Z,2.97
2023-08-08T01:26:45.055Z,5.78
2023-08-08T01:28:21.332Z,2.92
2023-08-08T01:29:55.420Z,2.63
2023-08-08T01:31:27.724Z,1.75
2023-08-08T01:33:01.288Z,1.67
2023-08-08T01:34:34.245Z,2.22
2023-08-08T01:36:26.921Z,3.10
2023-08-08T01:38:09.874Z,1.92
2023-08-08T01:39:44.999Z,4.18
2023-08-08T01:41:22.164Z,3.83
2023-08-08T01:42:57.739Z,1.67
2023-08-08T01:44:36.586Z,2.50
2023-08-08T01:46:11.022Z,2.78
2023-08-08T01:47:43.715Z,5.32
2023-08-08T01:49:17.169Z,2.63
2023-08-08T01:50:49.693Z,2.15
2023-08-08T01:52:23.844Z,1.40
2023-08-08T01:53:56.242Z,2.97
2023-08-08T01:55:29.944Z,1.58
2023-08-08T01:57:05.160Z,1.60
2023-08-08T01:58:37.627Z,2.45
2023-08-08T02:00:14.063Z,1.50
2023-08-08T02:01:50.737Z,4.80
2023-08-08T02:03:23.271Z,2.25
2023-08-08T02:04:56.674Z,1.65
2023-08-08T02:06:29.130Z,1.90
2023-08-08T02:08:02.471Z,4.15
2023-08-08T02:09:36.803Z,1.75
2023-08-08T02:11:10.335Z,2.42
2023-08-08T02:12:44.050Z,1.58
2023-08-08T02:14:17.391Z,3.47
2023-08-08T02:15:50.747Z,4.60
2023-08-08T02:17:23.241Z,5.97
2023-08-08T02:18:56.526Z,1.73
2023-08-08T02:20:30.098Z,3.08
2023-08-08T02:22:04.170Z,1.85
2023-08-08T02:23:36.958Z,2.58
2023-08-08T02:25:10.764Z,2.53
2023-08-08T02:26:43.171Z,1.40
2023-08-08T02:28:17.959Z,1.50
2023-08-08T02:31:23.577Z,4.13
2023-08-08T02:32:58.102Z,2.75
2023-08-08T02:34:32.504Z,2.03
2023-08-08T02:36:06.446Z,2.72
2023-08-08T02:37:38.878Z,4.15
2023-08-08T02:39:12.282Z,3.72
2023-08-08T02:40:44.650Z,2.88
2023-08-08T02:42:18.113Z,1.48
2023-08-08T02:43:52.024Z,1.40
2023-08-08T02:45:25.950Z,3.13
2023-08-08T02:46:58.878Z,1.80
2023-08-08T02:48:32.760Z,1.30
2023-08-08T02:50:06.155Z,2.95
2023-08-08T02:51:39.503Z,1.60
2023-08-08T02:53:12.349Z,1.23
2023-08-08T02:54:50.740Z,2.17
2023-08-08T02:56:23.086Z,2.25
2023-08-08T02:57:58.610Z,1.73
2023-08-08T02:59:32.517Z,1.50
2023-08-08T03:01:07.956Z,1.52
2023-08-08T03:02:41.647Z,1.77
2023-08-08T03:04:14.969Z,2.88
2023-08-08T03:05:48.295Z,3.20
2023-08-08T03:07:24.038Z,1.10
2023-08-08T03:08:57.316Z,2.00
2023-08-08T03:10:29.731Z,2.22
2023-08-08T03:12:03.120Z,4.57
2023-08-08T03:13:38.263Z,3.28
2023-08-08T03:15:13.860Z,4.72
2023-08-08T03:16:46.920Z,4.60
2023-08-08T03:18:20.362Z,1.70
2023-08-08T03:19:53.098Z,1.98
2023-08-08T03:21:26.600Z,2.10
2023-08-08T03:22:59.024Z,2.33
2023-08-08T03:24:32.321Z,2.08
2023-08-08T03:26:04.717Z,2.30
2023-08-08T03:27:38.156Z,2.75
2023-08-08T03:29:11.573Z,2.80
2023-08-08T03:30:50.861Z,3.15
2023-08-08T03:32:24.127Z,2.95
2023-08-08T03:33:57.496Z,2.33
2023-08-08T03:35:30.135Z,4.38
2023-08-08T03:37:03.521Z,2.20
2023-08-08T03:38:38.919Z,3.00
2023-08-08T03:40:14.802Z,4.07
2023-08-08T03:41:47.917Z,2.33
2023-08-08T03:43:21.208Z,2.83
2023-08-08T03:44:53.729Z,1.67
2023-08-08T03:46:28.363Z,2.40
2023-08-08T03:48:00.791Z,2.03
2023-08-08T03:49:34.250Z,1.42
2023-08-08T03:51:07.799Z,1.90
2023-08-08T03:52:41.147Z,5.18
2023-08-08T03:54:19.397Z,2.83
2023-08-08T03:55:52.782Z,2.55
2023-08-08T03:57:25.194Z,1.85
2023-08-08T03:59:00.528Z,2.28
2023-08-08T04:00:33.117Z,1.50
2023-08-08T04:02:07.897Z,2.90
2023-08-08T04:05:14.480Z,2.38
2023-08-08T04:06:47.827Z,4.45
2023-08-08T04:08:21.129Z,3.90
2023-08-08T04:09:55.701Z,2.47
2023-08-08T04:11:27.999Z,2.85
2023-08-08T04:13:01.265Z,3.58
2023-08-08T04:14:33.518Z,2.22
2023-08-08T04:16:07.014Z,2.95
2023-08-08T04:17:40.768Z,2.80
2023-08-08T04:19:14.145Z,4.28
2023-08-08T04:20:47.973Z,3.05
2023-08-08T04:22:21.409Z,2.42
2023-08-08T04:23:53.985Z,2.55
2023-08-08T04:25:28.240Z,3.55
2023-08-08T04:27:00.578Z,2.00
2023-08-08T04:28:34.590Z,6.13
2023-08-08T04:30:08.826Z,2.78
2023-08-08T04:31:43.063Z,3.05
2023-08-08T04:33:16.741Z,3.15
2023-08-08T04:34:50.178Z,2.10
2023-08-08T04:36:22.489Z,3.30
2023-08-08T04:37:55.811Z,2.00
2023-08-08T04:39:28.181Z,5.43
2023-08-08T04:41:01.800Z,2.85
2023-08-08T04:42:34.099Z,2.47
2023-08-08T04:44:07.433Z,2.88
2023-08-08T04:45:39.712Z,2.95
2023-08-08T04:47:13.515Z,3.72
2023-08-08T04:48:48.135Z,5.45
2023-08-08T04:50:21.590Z,3.75
2023-08-08T04:51:55.281Z,3.78
2023-08-08T04:53:27.646Z,4.28
2023-08-08T04:55:00.898Z,3.58
2023-08-08T04:56:33.649Z,4.93
2023-08-08T04:58:07.043Z,4.03
2023-08-08T04:59:39.533Z,3.42
2023-08-08T05:01:15.791Z,4.82
2023-08-08T05:02:48.306Z,5.80
2023-08-08T05:04:23.057Z,5.45
2023-08-08T05:05:55.504Z,4.78
2023-08-08T05:07:29.013Z,5.63
2023-08-08T05:09:01.404Z,2.80
2023-08-08T05:10:35.142Z,4.97
2023-08-08T05:12:08.680Z,4.57
2023-08-08T05:13:42.001Z,5.28
2023-08-08T05:15:14.348Z,5.60
2023-08-08T05:16:48.094Z,7.45
2023-08-08T05:18:20.495Z,5.13
2023-08-08T05:19:55.420Z,8.02
2023-08-08T05:21:27.766Z,6.20
2023-08-08T05:23:01.122Z,6.35
2023-08-08T05:24:33.479Z,6.00
2023-08-08T05:26:06.733Z,6.88
2023-08-08T05:27:39.156Z,6.75
2023-08-08T05:29:12.451Z,7.60
2023-08-08T05:30:44.965Z,8.45
2023-08-08T05:32:18.191Z,6.82
2023-08-08T05:33:51.622Z,7.03
2023-08-08T05:35:26.274Z,5.88
2023-08-08T05:37:14.347Z,8.48
2023-08-08T05:38:50.063Z,7.15
2023-08-08T05:40:23.440Z,10.85
2023-08-08T05:41:55.835Z,6.72
2023-08-08T05:43:30.866Z,6.63
2023-08-08T05:45:03.645Z,8.77
2023-08-08T05:46:37.429Z,8.50
2023-08-08T05:48:12.912Z,9.95
2023-08-08T05:49:46.291Z,6.90
2023-08-08T05:51:20.124Z,6.30
2023-08-08T05:52:53.449Z,7.43
2023-08-08T05:54:25.862Z,9.20
2023-08-08T05:55:59.310Z,9.00
2023-08-08T05:57:32.797Z,6.63
2023-08-08T05:59:05.540Z,8.15
2023-08-08T06:00:38.996Z,10.07
2023-08-08T06:02:12.522Z,8.35
2023-08-08T06:03:44.894Z,9.70
2023-08-08T06:05:19.074Z,7.80
2023-08-08T06:06:52.870Z,6.78
2023-08-08T06:08:26.318Z,7.25
2023-08-08T06:09:58.530Z,10.52
2023-08-08T06:11:32.033Z,9.80
2023-08-08T06:13:04.916Z,8.70
2023-08-08T06:14:38.556Z,8.18
2023-08-08T06:16:10.893Z,8.15
2023-08-08T06:17:44.219Z,10.93
2023-08-08T06:19:16.867Z,8.25
2023-08-08T06:20:50.314Z,10.32
2023-08-08T06:22:24.478Z,8.35
2023-08-08T06:23:57.801Z,10.30
2023-08-08T06:25:30.207Z,9.82
2023-08-08T06:27:03.939Z,7.28
2023-08-08T06:28:37.665Z,8.20
2023-08-08T06:30:11.819Z,9.00
2023-08-08T06:31:44.303Z,7.30
2023-08-08T06:33:17.641Z,8.90
2023-08-08T06:34:49.915Z,8.77
2023-08-08T06:36:23.698Z,7.95
2023-08-08T06:37:58.331Z,6.80
2023-08-08T06:39:41.116Z,11.75
2023-08-08T06:41:32.885Z,8.80
2023-08-08T06:43:24.716Z,9.45
2023-08-08T06:45:17.116Z,9.75
2023-08-08T06:46:50.579Z,7.13
2023-08-08T06:48:22.892Z,7.35
2023-08-08T06:49:56.114Z,8.23
2023-08-08T06:51:28.435Z,7.63
2023-08-08T06:53:01.690Z,8.13
2023-08-08T06:54:34.352Z,11.55
2023-08-08T06:56:08.960Z,7.82
2023-08-08T06:57:41.794Z,9.48
2023-08-08T06:59:15.100Z,12.27
2023-08-08T07:00:47.353Z,11.85
2023-08-08T07:02:21.644Z,10.82
2023-08-08T07:03:54.239Z,8.43
2023-08-08T07:05:27.791Z,7.95
2023-08-08T07:07:00.043Z,8.10
2023-08-08T07:08:33.514Z,8.68
2023-08-08T07:10:07.637Z,8.65
2023-08-08T07:11:42.507Z,9.07
2023-08-08T07:14:48.805Z,8.15
2023-08-08T07:16:22.123Z,7.32
2023-08-08T07:17:55.027Z,7.75
2023-08-08T07:19:28.301Z,9.05
2023-08-08T07:21:01.668Z,9.68
2023-08-08T07:22:35.337Z,11.77
2023-08-08T07:24:07.871Z,10.70
2023-08-08T07:25:41.536Z,9.05
2023-08-08T07:27:16.289Z,8.57
2023-08-08T07:28:48.683Z,6.95
2023-08-08T07:30:22.184Z,8.00
2023-08-08T07:31:55.144Z,10.73
2023-08-08T07:33:28.608Z,10.02
2023-08-08T07:35:02.378Z,7.55
2023-08-08T07:36:35.727Z,7.22
2023-08-08T07:38:27.318Z,7.30
2023-08-08T07:39:59.988Z,9.63
2023-08-08T07:41:33.703Z,8.38
2023-08-08T07:43:07.655Z,7.45
2023-08-08T07:44:40.968Z,7.50
2023-08-08T07:46:13.855Z,9.82
2023-08-08T07:47:47.269Z,7.55
2023-08-08T07:49:19.806Z,9.43
2023-08-08T07:50:52.992Z,8.18
2023-08-08T07:52:26.283Z,10.07
2023-08-08T07:53:59.342Z,10.30
2023-08-08T07:55:32.698Z,8.05
2023-08-08T07:57:05.817Z,7.55
2023-08-08T07:58:40.420Z,6.05
2023-08-08T08:00:14.151Z,6.85
2023-08-08T08:01:47.863Z,8.13
2023-08-08T08:03:20.374Z,11.48
2023-08-08T08:04:53.676Z,9.13
2023-08-08T08:06:26.911Z,9.88
2023-08-08T08:08:00.221Z,11.68
2023-08-08T08:09:32.470Z,7.65
2023-08-08T08:11:05.828Z,7.53
2023-08-08T08:12:39.283Z,8.35
2023-08-08T08:14:13.199Z,7.18
2023-08-08T08:15:46.573Z,7.43
2023-08-08T08:17:18.879Z,5.65
2023-08-08T08:18:52.106Z,6.70
2023-08-08T08:20:24.676Z,5.30
2023-08-08T08:21:58.125Z,8.13
2023-08-08T08:23:32.701Z,5.85
2023-08-08T08:25:08.649Z,6.00
2023-08-08T08:26:40.945Z,5.35
2023-08-08T08:28:14.744Z,7.47
2023-08-08T08:29:48.426Z,8.90
2023-08-08T08:31:21.721Z,7.22
2023-08-08T08:32:54.071Z,6.28
2023-08-08T08:34:27.456Z,6.90
2023-08-08T08:36:00.781Z,8.30
2023-08-08T08:37:33.710Z,7.03
2023-08-08T08:39:07.181Z,6.10
2023-08-08T08:40:42.798Z,7.85
2023-08-08T08:42:17.639Z,5.32
2023-08-08T08:43:51.116Z,7.25
2023-08-08T08:45:26.886Z,6.00
2023-08-08T08:47:03.431Z,7.78
2023-08-08T08:48:36.732Z,6.00
2023-08-08T08:50:10.354Z,5.97
2023-08-08T08:51:42.704Z,4.78
2023-08-08T08:53:16.933Z,5.75
2023-08-08T08:54:50.233Z,4.90
2023-08-08T08:56:24.069Z,4.82
2023-08-08T08:57:57.991Z,6.20
2023-08-08T08:59:31.294Z,5.10
2023-08-08T09:01:06.081Z,4.90
2023-08-08T09:04:14.140Z,5.43
2023-08-08T09:07:26.948Z,4.65
2023-08-08T09:09:11.045Z,6.85
2023-08-08T09:10:48.370Z,5.43
2023-08-08T09:12:22.287Z,6.05
2023-08-08T09:13:56.060Z,4.88
2023-08-08T09:15:32.786Z,5.88
2023-08-08T09:17:14.451Z,3.58
2023-08-08T09:18:47.657Z,6.03
2023-08-08T09:20:20.360Z,5.53
2023-08-08T09:21:54.922Z,4.95
2023-08-08T09:23:28.347Z,4.50
2023-08-08T09:25:02.846Z,4.50
2023-08-08T09:26:36.610Z,5.13
2023-08-08T09:28:09.077Z,3.35
2023-08-08T09:29:44.044Z,5.38
2023-08-08T09:31:18.538Z,5.90
2023-08-08T09:32:53.335Z,4.25
2023-08-08T09:34:26.804Z,6.07
2023-08-08T09:36:00.200Z,6.95
2023-08-08T09:37:32.465Z,5.60
2023-08-08T09:39:06.872Z,2.38
2023-08-08T09:40:40.774Z,4.32
2023-08-08T09:42:14.691Z,6.25
2023-08-08T09:43:49.412Z,4.00
2023-08-08T09:45:23.933Z,3.72
2023-08-08T09:46:56.650Z,2.97
2023-08-08T09:48:34.714Z,3.38
2023-08-08T09:50:08.851Z,4.05
2023-08-08T09:51:45.585Z,4.65
2023-08-08T09:53:21.131Z,5.05
2023-08-08T09:54:54.411Z,6.47
2023-08-08T09:56:28.119Z,4.38
2023-08-08T09:58:02.054Z,4.60
2023-08-08T09:59:36.708Z,4.80
2023-08-08T10:02:44.360Z,4.57
2023-08-08T10:04:19.822Z,5.63
2023-08-08T10:05:52.642Z,3.75
2023-08-08T10:07:29.300Z,4.50
2023-08-08T10:09:05.429Z,5.03
2023-08-08T10:10:43.693Z,6.05
2023-08-08T10:12:18.037Z,2.88
2023-08-08T10:13:52.504Z,5.18
2023-08-08T10:15:27.644Z,3.42
2023-08-08T10:17:01.107Z,3.55
2023-08-08T10:18:33.443Z,3.20
2023-08-08T10:20:12.985Z,5.88
2023-08-08T10:21:47.045Z,4.47
2023-08-08T10:23:20.082Z,4.25
2023-08-08T10:24:55.726Z,2.97
2023-08-08T10:26:29.250Z,4.32
2023-08-08T10:28:24.108Z,4.30
2023-08-08T10:30:05.330Z,2.90
2023-08-08T10:31:39.199Z,4.40
2023-08-08T10:33:18.156Z,3.35
2023-08-08T10:34:51.384Z,3.50
2023-08-08T10:36:24.970Z,4.10
2023-08-08T10:37:59.970Z,2.63
2023-08-08T10:39:32.710Z,3.05
2023-08-08T10:41:06.088Z,3.42
2023-08-08T10:42:48.107Z,5.30
2023-08-08T10:44:24.659Z,5.70
2023-08-08T10:46:12.798Z,4.03
2023-08-08T10:47:47.273Z,3.42
2023-08-08T10:49:20.263Z,4.35
2023-08-08T10:50:57.438Z,3.67
2023-08-08T10:52:31.291Z,4.40
2023-08-08T10:54:07.331Z,4.55
2023-08-08T10:55:39.638Z,4.15
2023-08-08T10:57:20.114Z,2.30
2023-08-08T10:58:52.521Z,3.08
2023-08-08T11:00:30.536Z,4.80
2023-08-08T11:02:03.971Z,2.80
2023-08-08T11:03:40.168Z,4.35
2023-08-08T11:05:13.878Z,4.07
2023-08-08T11:06:48.040Z,3.40
2023-08-08T11:08:23.835Z,3.88
2023-08-08T11:09:57.994Z,2.33
2023-08-08T11:11:37.341Z,3.13
2023-08-08T11:13:10.965Z,5.75
2023-08-08T11:14:44.612Z,1.95
2023-08-08T11:16:17.906Z,4.22
2023-08-08T11:17:50.895Z,4.88
2023-08-08T11:19:25.315Z,4.20
2023-08-08T11:21:05.602Z,3.28
2023-08-08T11:22:46.216Z,5.03
2023-08-08T11:24:20.859Z,2.85
2023-08-08T11:29:07.692Z,2.45
2023-08-08T11:30:43.437Z,4.47
2023-08-08T11:32:16.750Z,4.47
2023-08-08T11:33:49.496Z,4.63
2023-08-08T11:35:25.715Z,3.50
2023-08-08T11:36:59.369Z,3.30
2023-08-08T11:38:34.302Z,3.67
2023-08-08T11:40:10.834Z,3.72
2023-08-08T11:41:43.699Z,3.47
2023-08-08T11:43:17.659Z,3.65
2023-08-08T11:44:51.490Z,2.45
2023-08-08T11:46:28.277Z,3.72
2023-08-08T11:48:01.046Z,4.80
2023-08-08T11:49:44.672Z,3.60
2023-08-08T11:51:17.842Z,4.60
2023-08-08T11:52:53.982Z,3.15
2023-08-08T11:54:29.030Z,4.55
2023-08-08T11:56:05.052Z,4.45
2023-08-08T11:57:38.296Z,4.32
2023-08-08T11:59:13.293Z,6.38
2023-08-08T12:00:46.855Z,4.90
2023-08-08T12:02:20.400Z,2.67
2023-08-08T12:03:55.067Z,5.28
2023-08-08T12:07:04.647Z,4.03
2023-08-08T12:08:37.862Z,3.90
2023-08-08T12:10:18.080Z,4.28
2023-08-08T12:11:53.208Z,3.80
2023-08-08T12:13:27.885Z,2.55
2023-08-08T12:16:49.040Z,3.28
2023-08-08T12:18:21.683Z,3.03
2023-08-08T12:19:54.930Z,4.72
2023-08-08T12:21:28.508Z,4.85
2023-08-08T12:23:01.832Z,3.60
2023-08-08T12:24:34.178Z,4.93
2023-08-08T12:26:09.262Z,5.53
2023-08-08T12:27:42.876Z,3.85
2023-08-08T12:29:16.244Z,4.10
2023-08-08T12:30:48.566Z,3.90
2023-08-08T12:32:24.522Z,4.50
2023-08-08T12:33:57.735Z,3.80
2023-08-08T12:35:30.010Z,5.03
2023-08-08T12:37:03.683Z,5.60
2023-08-08T12:38:35.973Z,7.90
2023-08-08T12:40:11.046Z,3.20
2023-08-08T12:41:46.317Z,4.35
2023-08-08T12:43:20.998Z,4.20
2023-08-08T12:44:55.341Z,3.70
2023-08-08T12:46:28.624Z,5.68
2023-08-08T12:48:00.919Z,2.40
2023-08-08T12:49:34.180Z,2.72
2023-08-08T12:51:08.573Z,4.47
2023-08-08T12:52:41.112Z,8.18
2023-08-08T12:54:14.981Z,4.40
2023-08-08T12:55:47.275Z,4.78
2023-08-08T12:57:21.462Z,3.05
2023-08-08T12:58:55.477Z,2.88
2023-08-08T13:00:28.653Z,3.75
2023-08-08T13:02:01.328Z,3.50
2023-08-08T13:03:35.080Z,2.95
2023-08-08T13:05:08.153Z,4.15
2023-08-08T13:06:41.744Z,2.72
2023-08-08T13:08:14.889Z,1.95
2023-08-08T13:09:48.132Z,3.53
2023-08-08T13:11:20.407Z,3.05
2023-08-08T13:12:53.859Z,2.47
2023-08-08T13:14:27.634Z,2.55
2023-08-08T13:16:00.928Z,2.28
2023-08-08T13:17:33.216Z,3.20
2023-08-08T13:19:06.989Z,3.92
2023-08-08T13:20:39.698Z,3.35
2023-08-08T13:22:13.512Z,3.05
2023-08-08T13:23:46.965Z,2.20
2023-08-08T13:25:20.817Z,9.25
2023-08-08T13:26:53.172Z,3.10
2023-08-08T13:28:26.439Z,3.03
2023-08-08T13:30:00.190Z,2.05
2023-08-08T13:31:33.427Z,2.60
2023-08-08T13:33:06.079Z,2.83
2023-08-08T13:34:39.418Z,2.97
2023-08-08T13:36:11.811Z,3.45
2023-08-08T13:37:46.383Z,2.58
2023-08-08T13:39:19.950Z,2.70
2023-08-08T13:40:52.217Z,1.02
2023-08-08T13:42:25.538Z,2.08
2023-08-08T13:43:57.979Z,2.35
2023-08-08T13:45:32.531Z,2.35
2023-08-08T13:47:05.013Z,3.97
2023-08-08T13:48:38.694Z,4.93
2023-08-08T13:50:11.111Z,2.40
2023-08-08T13:51:46.313Z,2.90
2023-08-08T13:53:21.140Z,1.77
2023-08-08T13:54:56.194Z,2.45
2023-08-08T13:56:28.366Z,3.55
2023-08-08T13:58:01.710Z,3.67
2023-08-08T13:59:34.939Z,2.97
2023-08-08T14:01:08.592Z,3.92
2023-08-08T14:02:42.085Z,3.30
2023-08-08T14:04:14.476Z,3.42
2023-08-08T14:05:47.670Z,2.30
2023-08-08T14:07:20.057Z,2.25
2023-08-08T14:08:53.649Z,3.60
2023-08-08T14:10:26.814Z,4.03
2023-08-08T14:12:00.422Z,2.58
2023-08-08T14:13:35.272Z,3.65
2023-08-08T14:16:44.969Z,2.15
2023-08-08T14:18:17.196Z,2.72
2023-08-08T14:19:50.714Z,3.10
2023-08-08T14:21:22.964Z,2.40
2023-08-08T14:22:56.361Z,4.43
2023-08-08T14:24:28.571Z,4.32
2023-08-08T14:26:01.840Z,2.40
2023-08-08T14:27:34.145Z,1.80
2023-08-08T14:29:07.427Z,3.28
2023-08-08T14:30:39.835Z,2.10
2023-08-08T14:32:14.498Z,2.42
2023-08-08T14:33:48.321Z,4.15
2023-08-08T14:35:20.896Z,2.30
2023-08-08T14:36:54.123Z,2.80
2023-08-08T14:38:28.582Z,2.78
2023-08-08T14:40:00.841Z,2.70
2023-08-08T14:41:34.416Z,2.90
2023-08-08T14:43:11.243Z,3.08
2023-08-08T14:44:43.674Z,2.15
2023-08-08T14:46:17.395Z,3.33
2023-08-08T14:47:52.117Z,3.30
2023-08-08T14:49:27.121Z,2.28
2023-08-08T14:51:04.262Z,2.40
2023-08-08T14:52:36.555Z,2.67
2023-08-08T14:54:09.993Z,3.67
2023-08-08T14:55:43.194Z,3.20
2023-08-08T14:57:15.480Z,3.00
2023-08-08T14:59:04.658Z,3.28
2023-08-08T15:00:52.620Z,2.25
2023-08-08T15:02:25.936Z,3.25
2023-08-08T15:04:01.188Z,2.60
2023-08-08T15:05:33.478Z,4.38
2023-08-08T15:07:06.894Z,2.92
2023-08-08T15:08:39.100Z,2.53
2023-08-08T15:10:12.460Z,2.95
2023-08-08T15:11:44.766Z,4.15
2023-08-08T15:13:18.095Z,2.85
2023-08-08T15:14:52.223Z,3.67
2023-08-08T15:16:24.845Z,7.13
2023-08-08T15:17:59.192Z,3.95
2023-08-08T15:19:34.047Z,3.50
2023-08-08T15:21:08.404Z,3.15
2023-08-08T15:22:41.791Z,3.90
2023-08-08T15:24:14.080Z,2.88
2023-08-08T15:25:47.449Z,5.47
2023-08-08T15:27:20.648Z,4.25
2023-08-08T15:28:52.937Z,5.15
2023-08-08T15:30:26.413Z,3.13
2023-08-08T15:31:58.705Z,3.45
2023-08-08T15:33:32.225Z,3.47
2023-08-08T15:35:07.683Z,3.22
2023-08-08T15:36:40.962Z,2.85
2023-08-08T15:38:13.384Z,3.25
2023-08-08T15:39:46.818Z,3.92
2023-08-08T15:41:20.455Z,4.72
2023-08-08T15:42:53.382Z,4.28
2023-08-08T15:44:26.873Z,2.95
2023-08-08T15:46:00.299Z,2.55
2023-08-08T15:47:34.150Z,2.78
2023-08-08T15:49:07.571Z,2.88
2023-08-08T15:50:42.189Z,2.55
2023-08-08T15:53:48.888Z,4.38
2023-08-08T15:55:21.328Z,2.58
2023-08-08T15:56:54.762Z,3.33
2023-08-08T15:58:27.370Z,3.45
2023-08-08T16:00:00.899Z,3.35
2023-08-08T16:01:33.913Z,2.40
2023-08-08T16:03:07.605Z,2.50
2023-08-08T16:04:39.996Z,2.80
2023-08-08T16:06:14.711Z,3.42
2023-08-08T16:07:48.831Z,3.35
2023-08-08T16:09:22.087Z,2.35
2023-08-08T16:10:54.308Z,5.65
2023-08-08T16:12:27.610Z,2.50
2023-08-08T16:13:59.886Z,3.50
2023-08-08T16:15:33.230Z,3.70
2023-08-08T16:17:05.869Z,2.10
2023-08-08T16:18:39.106Z,4.20
2023-08-08T16:20:13.018Z,4.18
2023-08-08T16:21:47.571Z,3.22
2023-08-08T16:23:19.840Z,1.73
2023-08-08T16:24:53.124Z,3.58
2023-08-08T16:26:26.330Z,4.15
2023-08-08T16:27:58.631Z,4.55
2023-08-08T16:29:31.836Z,2.63
2023-08-08T16:31:04.227Z,3.78
2023-08-08T16:32:37.519Z,4.93
2023-08-08T16:34:10.247Z,3.60
2023-08-08T16:35:43.567Z,4.05
2023-08-08T16:37:17.307Z,1.63
2023-08-08T16:38:52.207Z,5.53
2023-08-08T16:40:25.920Z,3.60
2023-08-08T16:42:00.900Z,2.22
2023-08-08T16:43:38.274Z,4.15
2023-08-08T16:45:12.302Z,6.03
2023-08-08T16:46:44.837Z,2.95
2023-08-08T16:48:18.182Z,3.70
2023-08-08T16:49:50.724Z,3.08
2023-08-08T16:51:24.538Z,1.55
2023-08-08T16:52:59.175Z,3.42
2023-08-08T16:54:31.858Z,4.32
2023-08-08T16:56:07.863Z,2.83
2023-08-08T16:57:40.449Z,4.05
2023-08-08T16:59:13.635Z,1.90
2023-08-08T17:00:45.933Z,2.47
2023-08-08T17:02:19.232Z,2.75
2023-08-08T17:03:51.472Z,3.15
2023-08-08T17:05:25.136Z,4.20
2023-08-08T17:06:57.324Z,4.15
2023-08-08T17:08:31.956Z,2.15
2023-08-08T17:10:05.988Z,2.72
2023-08-08T17:11:39.251Z,2.28
2023-08-08T17:13:12.684Z,4.82
2023-08-08T17:14:44.937Z,3.75
2023-08-08T17:16:19.174Z,2.60
2023-08-08T17:17:51.535Z,2.95
2023-08-08T17:19:24.913Z,1.52
2023-08-08T17:20:57.791Z,1.17
2023-08-08T17:22:30.983Z,2.72
2023-08-08T17:24:06.327Z,1.35
2023-08-08T17:25:38.970Z,1.65
2023-08-08T17:27:12.440Z,3.75
2023-08-08T17:28:44.881Z,2.53
2023-08-08T17:30:18.182Z,1.60
2023-08-08T17:31:50.452Z,2.03
2023-08-08T17:33:24.426Z,3.20
2023-08-08T17:34:57.248Z,3.05
2023-08-08T17:36:31.010Z,1.63
2023-08-08T17:38:04.708Z,1.92
2023-08-08T17:39:38.391Z,1.85
2023-08-08T17:41:12.785Z,1.33
2023-08-08T17:42:46.317Z,2.70
2023-08-08T17:44:18.541Z,1.20
2023-08-08T17:45:51.777Z,3.47
2023-08-08T17:47:25.866Z,2.20
2023-08-08T17:48:58.433Z,1.10
2023-08-08T17:50:31.927Z,2.95
2023-08-08T17:52:05.761Z,2.08
2023-08-08T17:53:52.999Z,1.58
2023-08-08T17:55:26.872Z,3.38
2023-08-08T17:57:00.325Z,3.20
2023-08-08T17:58:32.708Z,1.77
2023-08-08T18:00:08.405Z,4.35
2023-08-08T18:01:44.459Z,1.65
2023-08-08T18:03:17.816Z,3.65
2023-08-08T18:04:51.136Z,2.83
2023-08-08T18:06:24.398Z,2.20
2023-08-08T18:07:56.917Z,2.90
2023-08-08T18:09:30.829Z,2.72
2023-08-08T18:11:05.426Z,1.85
2023-08-08T18:12:37.680Z,2.55
2023-08-08T18:14:11.729Z,1.63
2023-08-08T18:15:43.971Z,3.35
2023-08-08T18:17:17.297Z,2.88
2023-08-08T18:18:49.559Z,2.92
2023-08-08T18:20:22.941Z,2.78
2023-08-08T18:21:56.174Z,4.78
2023-08-08T18:23:29.060Z,2.47
2023-08-08T18:25:02.256Z,2.95
2023-08-08T18:26:36.850Z,1.75
2023-08-08T18:28:09.250Z,3.15
2023-08-08T18:29:42.477Z,3.22
2023-08-08T18:31:14.952Z,1.75
2023-08-08T18:32:48.232Z,2.45
2023-08-08T18:34:20.478Z,4.88
2023-08-08T18:35:53.717Z,2.67
2023-08-08T18:37:27.885Z,2.35
2023-08-08T18:39:01.468Z,2.33
2023-08-08T18:40:34.868Z,2.45
2023-08-08T18:42:08.806Z,2.65
2023-08-08T18:43:42.090Z,3.35
2023-08-08T18:45:16.177Z,2.53
2023-08-08T18:46:48.472Z,2.15
2023-08-08T18:48:22.085Z,4.55
2023-08-08T18:49:54.360Z,1.92
2023-08-08T18:51:27.746Z,3.13
2023-08-08T18:53:00.083Z,3.53
2023-08-08T18:54:34.043Z,2.22
2023-08-08T18:56:06.290Z,2.30
2023-08-08T18:57:40.949Z,3.50
2023-08-08T18:59:13.690Z,3.72
2023-08-08T19:00:47.503Z,3.03
2023-08-08T19:02:20.813Z,3.03
2023-08-08T19:03:54.639Z,2.25
2023-08-08T19:05:27.293Z,2.85
2023-08-08T19:07:00.827Z,3.50
2023-08-08T19:08:33.222Z,2.55
2023-08-08T19:10:08.205Z,3.30
2023-08-08T19:11:40.902Z,2.17
2023-08-08T19:13:17.032Z,2.92
2023-08-08T19:14:49.410Z,2.63
2023-08-08T19:16:22.731Z,2.65
2023-08-08T19:17:56.582Z,4.15
2023-08-08T19:19:30.524Z,1.88
2023-08-08T19:21:04.468Z,3.15
2023-08-08T19:22:36.968Z,2.58
2023-08-08T19:24:10.811Z,3.28
2023-08-08T19:25:44.379Z,2.40
2023-08-08T19:27:17.316Z,3.60
2023-08-08T19:28:52.919Z,4.97
2023-08-08T19:30:25.199Z,2.22
2023-08-08T19:31:59.081Z,2.80
2023-08-08T19:33:32.062Z,2.80
2023-08-08T19:35:06.451Z,3.28
2023-08-08T19:36:38.814Z,2.97
2023-08-08T19:38:12.881Z,3.30
2023-08-08T19:39:46.449Z,4.70
2023-08-08T19:41:18.768Z,2.75
2023-08-08T19:42:54.624Z,1.75
2023-08-08T19:44:28.233Z,3.35
2023-08-08T19:46:01.478Z,3.95
2023-08-08T19:47:33.881Z,3.20
2023-08-08T19:49:07.787Z,2.20
2023-08-08T19:50:42.983Z,2.22
2023-08-08T19:52:16.421Z,2.45
2023-08-08T19:53:49.588Z,4.32
2023-08-08T19:55:22.995Z,3.72
2023-08-08T19:56:55.331Z,3.00
2023-08-08T19:58:28.797Z,2.20
2023-08-08T20:00:02.582Z,2.80
2023-08-08T20:01:45.788Z,2.40
2023-08-08T20:03:18.274Z,2.20
2023-08-08T20:04:53.196Z,4.22
2023-08-08T20:06:25.497Z,2.63
2023-08-08T20:07:58.802Z,2.00
2023-08-08T20:09:32.233Z,2.58
2023-08-08T20:11:06.465Z,2.17
2023-08-08T20:12:39.695Z,3.13
2023-08-08T20:14:12.018Z,1.80
2023-08-08T20:15:46.729Z,1.42
2023-08-08T20:17:19.011Z,4.53
2023-08-08T20:18:52.603Z,2.47
2023-08-08T20:20:26.172Z,2.33
2023-08-08T20:21:58.459Z,2.30
2023-08-08T20:23:31.902Z,4.00
2023-08-08T20:25:05.334Z,2.45
2023-08-08T20:26:38.645Z,4.15
2023-08-08T20:28:11.233Z,2.90
2023-08-08T20:29:44.565Z,2.45
2023-08-08T20:31:18.453Z,2.45
2023-08-08T20:32:51.693Z,2.72
2023-08-08T20:34:23.975Z,2.85
2023-08-08T20:35:57.592Z,3.17
2023-08-08T20:37:29.942Z,3.78
2023-08-08T20:39:05.154Z,3.50
2023-08-08T20:40:37.453Z,2.78
2023-08-08T20:42:11.994Z,2.08
2023-08-08T20:43:44.407Z,3.92
2023-08-08T20:45:17.881Z,3.80
2023-08-08T20:46:51.618Z,2.00
2023-08-08T20:48:25.169Z,2.92
2023-08-08T20:49:57.471Z,4.15
2023-08-08T20:51:30.695Z,2.47
2023-08-08T20:53:03.797Z,2.90
2023-08-08T20:54:37.093Z,4.35
2023-08-08T20:56:09.528Z,2.88
2023-08-08T20:57:42.768Z,3.35
2023-08-08T20:59:16.266Z,2.22
2023-08-08T21:00:48.666Z,3.05
2023-08-08T21:02:23.334Z,2.78
2023-08-08T21:03:55.639Z,2.53
2023-08-08T21:05:28.998Z,3.17
2023-08-08T21:07:01.743Z,3.25
2023-08-08T21:08:36.886Z,4.35
2023-08-08T21:10:10.550Z,2.90